Buoy 33880

sailwx.info

Track history (hours):
 
Tides and Currents Weather Stations Pressure Air Temp Water Temp Dewpoint Dewpoint Depression Visibility Wind Speed Wind Dir Waves Ship Positions

Drifting buoy 33880

Last reported at 2014-Mar-22 16:40 UTC. Time now 2014-Jul-29 00:35 UTC.
Position S 45°36' W 010°52'.
Warning: this ship's position is months out of date.

Barometer 1025.8 mb

Date/timePositionNaut miles runAvg speedWind from/ knotsBaromVisibWave heightAir tempDewpointWater temp
2014-Mar-22 16:40S 45°36' W 010°52'2 0.5 1025.8
2014-Mar-22 13:40S 45°36' W 010°54'5 0.9 1028.7
2014-Mar-22 08:40S 45°34' W 011°00'1 0.5 1031.0
2014-Mar-22 06:40S 45°33' W 011°01'2 0.5 1031.9
2014-Mar-22 02:40S 45°32' W 011°04'2 0.8 1031.2
2014-Mar-22 00:40S 45°34' W 011°06'2 1.2 1032.6
2014-Mar-21 22:40S 45°35' W 011°09'0 0.0 1031.3
2014-Mar-21 21:40S 45°35' W 011°09'0 0.0 1030.9
2014-Mar-21 20:40S 45°35' W 011°09'0 0.4 1030.3
2014-Mar-21 19:40S 45°35' W 011°09'3 0.7 1029.2
2014-Mar-21 15:40S 45°37' W 011°12'0 0.0 1024.7
2014-Mar-21 14:40S 45°37' W 011°12'8 0.9 1023.8
2014-Mar-21 05:40S 45°45' W 011°15'6 1.2 1009.4
2014-Mar-21 00:40S 45°50' W 011°20'0 0.4 1000.8
2014-Mar-20 23:40S 45°49' W 011°20'3 1.0 999.8
2014-Mar-20 20:40S 45°51' W 011°24'1 0.5 998.4
2014-Mar-20 18:40S 45°51' W 011°25'2 2.1 997.3
2014-Mar-20 17:40S 45°53' W 011°27'0 0.0 996.7
2014-Mar-20 16:40S 45°53' W 011°27'6 0.8 996.1
2014-Mar-20 08:40S 45°54' W 011°36'0 0.0 992.6
2014-Mar-20 06:40S 45°54' W 011°36'2 0.5 993.7
2014-Mar-20 02:40S 45°55' W 011°38'1 1.0 996.7
2014-Mar-20 01:40S 45°56' W 011°40'1 0.8 997.0
2014-Mar-20 00:40S 45°55' W 011°41'1 0.4 997.5
2014-Mar-19 21:40S 45°55' W 011°42'1 0.2 999.1
2014-Mar-19 17:40S 45°56' W 011°43'0 0.4 997.7
2014-Mar-19 16:40S 45°56' W 011°44'1 1.1 997.8
2014-Mar-19 15:40S 45°57' W 011°44'1 1.0 997.8
2014-Mar-19 14:40S 45°57' W 011°46'4 0.6 998.0
2014-Mar-19 08:40S 45°58' W 011°51'1 0.5 997.9
2014-Mar-19 07:40S 45°58' W 011°51'1 0.1 997.5
2014-Mar-19 01:40S 45°58' W 011°52'1 0.1 1003.5
2014-Mar-18 21:40S 45°58' W 011°53'1 1.2 1011.9
2014-Mar-18 20:40S 45°57' W 011°54'0 0.1 1013.1
2014-Mar-18 15:40S 45°58' W 011°54'3 0.9 1016.6
2014-Mar-18 12:40S 46°00' W 011°56'0 0.0 1017.4
2014-Mar-18 11:40S 46°00' W 011°56'0 0.2 1017.2
2014-Mar-18 09:40S 46°01' W 011°56'3 0.8 1017.5
2014-Mar-18 05:40S 46°03' W 011°57'3 1.1 1015.6
2014-Mar-18 02:40S 46°06' W 012°00'5 0.8 1013.9
2014-Mar-17 20:40S 46°10' W 012°05'6 1.1 1009.3
2014-Mar-17 15:40S 46°15' W 012°09'3 0.8 1004.8
2014-Mar-17 12:40S 46°17' W 012°11'3 1.0 1003.4
2014-Mar-17 09:40S 46°19' W 012°14'6 0.9 1001.8
2014-Mar-17 03:40S 46°19' W 012°22'1 0.6 999.5
2014-Mar-17 02:40S 46°20' W 012°23'2 0.7 999.4
2014-Mar-16 23:40S 46°20' W 012°25'3 2.9 1000.0
2014-Mar-16 22:40S 46°20' W 012°30'3 0.5 1001.0
2014-Mar-16 17:40S 46°21' W 012°33'3 0.7 1005.8
2014-Mar-16 12:40S 46°20' W 012°38'3 0.9 1010.4
2014-Mar-16 09:40S 46°21' W 012°42'0 0.1 1013.2
2014-Mar-16 08:40S 46°21' W 012°42'2 0.8 1014.4
2014-Mar-16 06:40S 46°22' W 012°44'5 0.8 1015.5
2014-Mar-16 00:40S 46°24' W 012°49'1 0.6 1018.4
2014-Mar-15 23:40S 46°24' W 012°50'23 0.7 1018.6
2014-Mar-14 16:40S 46°43' W 013°09'5 0.7 1012.4
2014-Mar-14 09:40S 46°47' W 013°13'0 0.2 1014.6
2014-Mar-14 08:40S 46°47' W 013°14'2 0.8 1015.2
2014-Mar-14 06:40S 46°48' W 013°15'2 0.5 1015.6
2014-Mar-14 03:40S 46°49' W 013°16'0 0.2 1017.0
2014-Mar-14 02:40S 46°50' W 013°16'1 0.3 1017.9
2014-Mar-14 00:40S 46°50' W 013°16'1 0.9 1018.3
2014-Mar-13 23:40S 46°51' W 013°17'1 0.8 1018.4
2014-Mar-13 22:40S 46°52' W 013°17'0 0.2 1018.4
2014-Mar-13 21:40S 46°52' W 013°17'4 1.1 1018.4
2014-Mar-13 17:40S 46°56' W 013°15'0 0.4 1016.6
2014-Mar-13 16:40S 46°56' W 013°15'4 1.8 1015.9
2014-Mar-13 14:40S 46°59' W 013°17'0 0.3 1014.9
2014-Mar-13 13:40S 46°59' W 013°17'5 0.8 1014.9
2014-Mar-13 07:40S 47°02' W 013°23'0 0.0 1014.9
2014-Mar-13 06:40S 47°02' W 013°23'0 0.0 1015.3
2014-Mar-13 05:40S 47°02' W 013°23'1 0.3 1015.8
2014-Mar-13 00:40S 47°03' W 013°24'0 0.2 1018.7
2014-Mar-12 23:40S 47°03' W 013°24'1 0.5 1019.7
2014-Mar-12 21:40S 47°04' W 013°25'   1021.1
Track history (hours):
 
Tides and Currents Weather Stations Pressure Air Temp Water Temp Dewpoint Dewpoint Depression Visibility Wind Speed Wind Dir Waves Ship Positions

Drifting buoy 33880

Last reported at 2014-Mar-22 16:40 UTC. Time now 2014-Jul-29 00:35 UTC.
Position S 45°36' W 010°52'.
Warning: this ship's position is months out of date.

Barometer 1025.8 mb

Date/timePositionNaut miles runAvg speedWind from/ knotsBaromVisibWave heightAir tempDewpointWater temp
2014-Mar-22 16:40S 45°36' W 010°52'2 0.5 1025.8
2014-Mar-22 13:40S 45°36' W 010°54'5 0.9 1028.7
2014-Mar-22 08:40S 45°34' W 011°00'1 0.5 1031.0
2014-Mar-22 06:40S 45°33' W 011°01'2 0.5 1031.9
2014-Mar-22 02:40S 45°32' W 011°04'2 0.8 1031.2
2014-Mar-22 00:40S 45°34' W 011°06'2 1.2 1032.6
2014-Mar-21 22:40S 45°35' W 011°09'0 0.0 1031.3
2014-Mar-21 21:40S 45°35' W 011°09'0 0.0 1030.9
2014-Mar-21 20:40S 45°35' W 011°09'0 0.4 1030.3
2014-Mar-21 19:40S 45°35' W 011°09'3 0.7 1029.2
2014-Mar-21 15:40S 45°37' W 011°12'0 0.0 1024.7
2014-Mar-21 14:40S 45°37' W 011°12'8 0.9 1023.8
2014-Mar-21 05:40S 45°45' W 011°15'6 1.2 1009.4
2014-Mar-21 00:40S 45°50' W 011°20'0 0.4 1000.8
2014-Mar-20 23:40S 45°49' W 011°20'3 1.0 999.8
2014-Mar-20 20:40S 45°51' W 011°24'1 0.5 998.4
2014-Mar-20 18:40S 45°51' W 011°25'2 2.1 997.3
2014-Mar-20 17:40S 45°53' W 011°27'0 0.0 996.7
2014-Mar-20 16:40S 45°53' W 011°27'6 0.8 996.1
2014-Mar-20 08:40S 45°54' W 011°36'0 0.0 992.6
2014-Mar-20 06:40S 45°54' W 011°36'2 0.5 993.7
2014-Mar-20 02:40S 45°55' W 011°38'1 1.0 996.7
2014-Mar-20 01:40S 45°56' W 011°40'1 0.8 997.0
2014-Mar-20 00:40S 45°55' W 011°41'1 0.4 997.5
2014-Mar-19 21:40S 45°55' W 011°42'1 0.2 999.1
2014-Mar-19 17:40S 45°56' W 011°43'0 0.4 997.7
2014-Mar-19 16:40S 45°56' W 011°44'1 1.1 997.8
2014-Mar-19 15:40S 45°57' W 011°44'1 1.0 997.8
2014-Mar-19 14:40S 45°57' W 011°46'4 0.6 998.0
2014-Mar-19 08:40S 45°58' W 011°51'1 0.5 997.9
2014-Mar-19 07:40S 45°58' W 011°51'1 0.1 997.5
2014-Mar-19 01:40S 45°58' W 011°52'1 0.1 1003.5
2014-Mar-18 21:40S 45°58' W 011°53'1 1.2 1011.9
2014-Mar-18 20:40S 45°57' W 011°54'0 0.1 1013.1
2014-Mar-18 15:40S 45°58' W 011°54'3 0.9 1016.6
2014-Mar-18 12:40S 46°00' W 011°56'0 0.0 1017.4
2014-Mar-18 11:40S 46°00' W 011°56'0 0.2 1017.2
2014-Mar-18 09:40S 46°01' W 011°56'3 0.8 1017.5
2014-Mar-18 05:40S 46°03' W 011°57'3 1.1 1015.6
2014-Mar-18 02:40S 46°06' W 012°00'5 0.8 1013.9
2014-Mar-17 20:40S 46°10' W 012°05'6 1.1 1009.3
2014-Mar-17 15:40S 46°15' W 012°09'3 0.8 1004.8
2014-Mar-17 12:40S 46°17' W 012°11'3 1.0 1003.4
2014-Mar-17 09:40S 46°19' W 012°14'6 0.9 1001.8
2014-Mar-17 03:40S 46°19' W 012°22'1 0.6 999.5
2014-Mar-17 02:40S 46°20' W 012°23'2 0.7 999.4
2014-Mar-16 23:40S 46°20' W 012°25'3 2.9 1000.0
2014-Mar-16 22:40S 46°20' W 012°30'3 0.5 1001.0
2014-Mar-16 17:40S 46°21' W 012°33'3 0.7 1005.8
2014-Mar-16 12:40S 46°20' W 012°38'3 0.9 1010.4
2014-Mar-16 09:40S 46°21' W 012°42'0 0.1 1013.2
2014-Mar-16 08:40S 46°21' W 012°42'2 0.8 1014.4
2014-Mar-16 06:40S 46°22' W 012°44'5 0.8 1015.5
2014-Mar-16 00:40S 46°24' W 012°49'1 0.6 1018.4
2014-Mar-15 23:40S 46°24' W 012°50'23 0.7 1018.6
2014-Mar-14 16:40S 46°43' W 013°09'5 0.7 1012.4
2014-Mar-14 09:40S 46°47' W 013°13'0 0.2 1014.6
2014-Mar-14 08:40S 46°47' W 013°14'2 0.8 1015.2
2014-Mar-14 06:40S 46°48' W 013°15'2 0.5 1015.6
2014-Mar-14 03:40S 46°49' W 013°16'0 0.2 1017.0
2014-Mar-14 02:40S 46°50' W 013°16'1 0.3 1017.9
2014-Mar-14 00:40S 46°50' W 013°16'1 0.9 1018.3
2014-Mar-13 23:40S 46°51' W 013°17'1 0.8 1018.4
2014-Mar-13 22:40S 46°52' W 013°17'0 0.2 1018.4
2014-Mar-13 21:40S 46°52' W 013°17'4 1.1 1018.4
2014-Mar-13 17:40S 46°56' W 013°15'0 0.4 1016.6
2014-Mar-13 16:40S 46°56' W 013°15'4 1.8 1015.9
2014-Mar-13 14:40S 46°59' W 013°17'0 0.3 1014.9
2014-Mar-13 13:40S 46°59' W 013°17'5 0.8 1014.9
2014-Mar-13 07:40S 47°02' W 013°23'0 0.0 1014.9
2014-Mar-13 06:40S 47°02' W 013°23'0 0.0 1015.3
2014-Mar-13 05:40S 47°02' W 013°23'1 0.3 1015.8
2014-Mar-13 00:40S 47°03' W 013°24'0 0.2 1018.7
2014-Mar-12 23:40S 47°03' W 013°24'1 0.5 1019.7
2014-Mar-12 21:40S 47°04' W 013°25'   1021.1

Dump ship's entire track history